Time;durP1;ratioP1;P1;durP2;ratioP2;P2;SDS_P1;SDS_P2;PMS_P1;PMS_P2;Temp;Humidity;BMP_temperature;BMP_pressure;BME280_temperature;BME280_humidity;BME280_pressure;Samples;Min_cycle;Max_cycle;Signal;HPM_P1;HPM_P2
2022/12/05 00:01:22;;;;;;;;;;;;;;;-2.35;76.65;102862.53;4998527;28;20071;-70
2022/12/05 00:03:49;;;;;;;;;;;;;;;-2.36;75.11;102866.06;4998894;28;19914;-68
2022/12/05 00:06:14;;;;;;;;;;;;;;;-2.36;75.02;102868.69;4996801;28;19968;-68
2022/12/05 00:08:42;;;;;;;;;;;;;;;-2.35;75.52;102865.16;4993943;28;20386;-69
2022/12/05 00:11:15;;;;;;;;;;;;;;;-2.38;75.16;102860.88;4994488;28;20048;-68
2022/12/05 00:13:41;;;;;;;;;;;;;;;-2.40;74.07;102865.28;4994551;28;19914;-69
2022/12/05 00:16:10;;;;;;;;;;;;;;;-2.42;75.01;102855.75;4994709;28;19914;-69
2022/12/05 00:18:35;;;;;;;;;;;;;;;-2.41;74.70;102862.75;4994787;28;19987;-69
2022/12/05 00:21:01;;;;;;;;;;;;;;;-2.41;74.83;102868.84;4993436;28;19914;-70
2022/12/05 00:23:26;;;;;;;;;;;;;;;-2.36;76.83;102871.31;4994606;28;19956;-70
2022/12/05 00:25:52;;;;;;;;;;;;;;;-2.43;75.29;102862.78;4992869;28;20378;-70
2022/12/05 00:28:17;;;;;;;;;;;;;;;-2.44;75.26;102862.81;4994774;28;20270;-68
2022/12/05 00:30:42;;;;;;;;;;;;;;;-2.45;75.41;102861.09;4994588;28;20366;-67
2022/12/05 00:33:07;;;;;;;;;;;;;;;-2.46;77.02;102857.59;4994828;28;20319;-68
2022/12/05 00:35:33;;;;;;;;;;;;;;;-2.50;74.92;102858.63;4994165;28;19996;-67
2022/12/05 00:37:58;;;;;;;;;;;;;;;-2.48;75.93;102851.53;4994087;28;19989;-67
2022/12/05 00:40:24;;;;;;;;;;;;;;;-2.48;75.96;102848.06;4994582;28;20021;-67
2022/12/05 00:42:49;;;;;;;;;;;;;;;-2.46;76.90;102848.88;4994307;28;20004;-67
2022/12/05 00:45:14;;;;;;;;;;;;;;;-2.47;76.67;102848.00;4994160;28;19918;-67
2022/12/05 00:47:39;;;;;;;;;;;;;;;-2.46;77.54;102847.09;4994174;28;20278;-67
2022/12/05 00:50:05;;;;;;;;;;;;;;;-2.47;77.32;102848.00;4995503;28;19957;-67
2022/12/05 00:52:30;;;;;;;;;;;;;;;-2.47;77.28;102849.75;4998239;28;19914;-67
2022/12/05 00:54:55;;;;;;;;;;;;;;;-2.43;78.70;102852.25;4998145;28;19914;-68
2022/12/05 00:57:21;;;;;;;;;;;;;;;-2.46;76.30;102851.50;4998278;28;19914;-68
2022/12/05 00:59:46;;;;;;;;;;;;;;;-2.49;77.44;102849.81;4998195;28;19961;-67
2022/12/05 01:02:11;;;;;;;;;;;;;;;-2.51;76.98;102845.50;4998410;28;19918;-67
2022/12/05 01:04:37;;;;;;;;;;;;;;;-2.58;75.82;102836.94;4997089;28;19918;-67
2022/12/05 01:07:02;;;;;;;;;;;;;;;-2.67;74.58;102832.88;4997653;28;19917;-67
2022/12/05 01:09:27;;;;;;;;;;;;;;;-2.61;77.71;102835.28;4998238;28;20305;-67
2022/12/05 01:11:53;;;;;;;;;;;;;;;-2.62;77.57;102830.06;4997878;28;19976;-67
2022/12/05 01:14:19;;;;;;;;;;;;;;;-2.57;78.44;102830.78;4998300;28;19921;-67
2022/12/05 01:16:46;;;;;;;;;;;;;;;-2.58;78.21;102827.31;4998396;28;19918;-67
2022/12/05 01:19:16;;;;;;;;;;;;;;;-2.63;75.08;102828.38;4997710;28;19913;-67
2022/12/05 01:21:42;;;;;;;;;;;;;;;-2.67;75.44;102834.66;4998454;28;19914;-67
2022/12/05 01:24:08;;;;;;;;;;;;;;;-2.68;76.14;102823.25;4997983;28;20012;-67
2022/12/05 01:26:33;;;;;;;;;;;;;;;-2.61;78.80;102819.50;4996872;28;19949;-67
2022/12/05 01:28:58;;;;;;;;;;;;;;;-2.63;77.21;102823.97;4997730;28;19914;-67
2022/12/05 01:31:30;;;;;;;;;;;;;;;-2.59;78.60;102820.31;4997883;28;19917;-67
2022/12/05 01:33:57;;;;;;;;;;;;;;;-2.61;76.32;102819.50;4997851;28;19913;-67
2022/12/05 01:36:23;;;;;;;;;;;;;;;-2.59;77.83;102812.41;4995681;28;20397;-67
2022/12/05 01:38:48;;;;;;;;;;;;;;;-2.64;76.73;102814.34;4997601;28;20389;-67
2022/12/05 01:41:15;;;;;;;;;;;;;;;-2.65;76.81;102812.63;4997645;28;19917;-67
2022/12/05 01:44:01;;;;;;;;;;;;;;;-2.62;77.29;102809.03;4997405;28;19949;-67
2022/12/05 01:46:28;;;;;;;;;;;;;;;-2.60;77.40;102802.81;4997762;28;19972;-67
2022/12/05 01:48:55;;;;;;;;;;;;;;;-2.57;76.89;102800.06;4997276;28;19913;-67
2022/12/05 01:51:22;;;;;;;;;;;;;;;-2.60;74.68;102799.31;4996928;28;19914;-67
2022/12/05 01:53:47;;;;;;;;;;;;;;;-2.69;72.92;102800.50;4997276;28;20004;-67
2022/12/05 01:56:13;;;;;;;;;;;;;;;-2.74;72.44;102797.16;4997583;28;19964;-67
2022/12/05 01:58:43;;;;;;;;;;;;;;;-2.77;73.60;102794.59;4997952;28;20009;-67
2022/12/05 02:01:10;;;;;;;;;;;;;;;-2.79;73.43;102796.44;4997135;28;19914;-67
2022/12/05 02:03:36;;;;;;;;;;;;;;;-2.80;74.81;102792.09;4997660;28;20350;-67
2022/12/05 02:06:02;;;;;;;;;;;;;;;-2.79;74.27;102788.53;4998076;28;20308;-67
2022/12/05 02:08:27;;;;;;;;;;;;;;;-3.28;74.23;102700.75;4997019;28;20012;-67
2022/12/05 02:10:54;;;;;;;;;;;;;;;-2.80;71.86;102789.47;4997081;28;19936;-67
2022/12/05 02:13:37;;;;;;;;;;;;;;;-2.79;73.52;102792.03;4996707;28;19949;-67
2022/12/05 02:16:21;;;;;;;;;;;;;;;-2.88;70.72;102792.31;4997166;28;19914;-67
2022/12/05 02:18:54;;;;;;;;;;;;;;;-2.93;70.36;102781.13;4995244;28;20029;-67
2022/12/05 02:21:38;;;;;;;;;;;;;;;-2.89;73.19;102779.25;4996450;28;19937;-67
2022/12/05 02:24:17;;;;;;;;;;;;;;;-2.88;73.45;102784.44;4996710;28;19952;-67
2022/12/05 02:26:50;;;;;;;;;;;;;;;-2.90;70.57;102774.88;4996820;28;19972;-67
2022/12/05 02:29:32;;;;;;;;;;;;;;;-2.94;69.30;102769.72;4996782;28;19914;-67
2022/12/05 02:32:06;;;;;;;;;;;;;;;-2.94;70.80;102774.13;4996817;28;20354;-67
2022/12/05 02:34:34;;;;;;;;;;;;;;;-2.95;69.75;102770.63;4996258;28;20013;-67
2022/12/05 02:37:10;;;;;;;;;;;;;;;-2.94;71.65;102764.44;4996005;28;19928;-67
2022/12/05 02:39:42;;;;;;;;;;;;;;;-2.95;68.96;102767.16;4996157;28;20020;-67
2022/12/05 02:42:27;;;;;;;;;;;;;;;-2.93;71.37;102757.44;4996298;28;19913;-67
2022/12/05 02:44:55;;;;;;;;;;;;;;;-2.89;71.93;102743.28;4996718;28;19914;-67
2022/12/05 02:47:22;;;;;;;;;;;;;;;-2.95;71.07;102756.66;4996136;28;19945;-67
2022/12/05 02:49:50;;;;;;;;;;;;;;;-3.02;69.00;102745.44;4996031;28;19918;-67
2022/12/05 02:52:16;;;;;;;;;;;;;;;-3.04;70.84;102739.38;4994847;28;20274;-67
2022/12/05 02:54:42;;;;;;;;;;;;;;;-3.07;70.26;102742.09;4996001;28;19921;-67
2022/12/05 02:57:08;;;;;;;;;;;;;;;-3.06;71.56;102741.22;4995874;28;19914;-67
2022/12/05 02:59:33;;;;;;;;;;;;;;;-3.09;69.77;102733.41;4994567;28;19913;-67
2022/12/05 03:02:01;;;;;;;;;;;;;;;-3.07;71.78;102731.59;4995977;28;20345;-67
2022/12/05 03:04:28;;;;;;;;;;;;;;;-3.08;71.42;102722.00;4995731;28;19913;-66
2022/12/05 03:06:57;;;;;;;;;;;;;;;-3.12;69.28;102720.34;4995997;28;19971;-66
2022/12/05 03:09:26;;;;;;;;;;;;;;;-3.11;72.24;102711.59;4995437;28;19914;-66
2022/12/05 03:11:53;;;;;;;;;;;;;;;-3.09;72.17;102714.16;4995819;28;19914;-68
2022/12/05 03:14:21;;;;;;;;;;;;;;;-3.13;71.13;102706.38;4995526;28;20020;-67
2022/12/05 03:16:51;;;;;;;;;;;;;;;-3.14;70.04;102712.56;4995671;28;20385;-67
2022/12/05 03:19:19;;;;;;;;;;;;;;;-3.13;72.19;102705.50;4995715;28;19961;-67
2022/12/05 03:21:52;;;;;;;;;;;;;;;-3.08;73.88;102707.97;4995650;28;19925;-67
2022/12/05 03:24:17;;;;;;;;;;;;;;;-3.12;71.06;102697.59;4995590;28;20342;-68
2022/12/05 03:26:58;;;;;;;;;;;;;;;-3.06;73.56;102687.78;4995668;28;20000;-67
2022/12/05 03:29:35;;;;;;;;;;;;;;;-3.05;72.99;102686.88;4995779;28;20016;-68
2022/12/05 03:32:05;;;;;;;;;;;;;;;-3.04;71.95;102689.44;4994067;28;20005;-67
2022/12/05 03:34:36;;;;;;;;;;;;;;;-3.03;71.62;102683.25;4994810;28;19970;-67
2022/12/05 03:37:04;;;;;;;;;;;;;;;-3.00;74.21;102687.59;4994788;28;19972;-68
2022/12/05 03:39:32;;;;;;;;;;;;;;;-3.03;72.76;102688.53;4995771;28;19913;-68
2022/12/05 03:42:07;;;;;;;;;;;;;;;-3.04;73.55;102689.44;4995483;28;19960;-68
2022/12/05 03:44:50;;;;;;;;;;;;;;;-3.01;71.46;102683.22;4995111;28;19913;-68
2022/12/05 03:47:20;;;;;;;;;;;;;;;-3.01;72.10;102692.00;4995148;28;20008;-68
2022/12/05 03:49:57;;;;;;;;;;;;;;;-2.97;73.25;102695.34;4995373;28;20373;-67
2022/12/05 03:52:26;;;;;;;;;;;;;;;-2.94;73.98;102697.88;4993995;28;19952;-67
2022/12/05 03:54:56;;;;;;;;;;;;;;;-2.92;72.64;102698.69;4994121;28;19913;-67
2022/12/05 03:57:28;;;;;;;;;;;;;;;-2.92;72.51;102694.31;4995514;28;19936;-67
2022/12/05 03:59:53;;;;;;;;;;;;;;;-2.93;72.87;102691.72;4994766;28;19913;-67
2022/12/05 04:02:27;;;;;;;;;;;;;;;-2.83;76.84;102693.13;4995051;28;19920;-67
2022/12/05 04:05:00;;;;;;;;;;;;;;;-2.80;76.28;102687.78;4995030;28;19941;-67
2022/12/05 04:07:28;;;;;;;;;;;;;;;-2.79;74.98;102691.25;4995096;28;19976;-66
2022/12/05 04:10:00;;;;;;;;;;;;;;;-2.73;77.90;102688.41;4993019;28;19920;-67
2022/12/05 04:12:27;;;;;;;;;;;;;;;-2.72;75.99;102684.88;4992801;28;19924;-67
2022/12/05 04:14:57;;;;;;;;;;;;;;;-2.75;74.26;102675.34;4995164;28;19937;-67
2022/12/05 04:17:30;;;;;;;;;;;;;;;-2.82;73.01;102678.19;4994772;28;19956;-67
2022/12/05 04:22:43;;;;;;;;;;;;;;;-2.78;73.40;102680.69;4994580;28;19914;-67
2022/12/05 04:28:02;;;;;;;;;;;;;;;-2.74;72.68;102660.41;4995039;28;19924;-67
2022/12/05 04:30:34;;;;;;;;;;;;;;;-2.77;71.24;102655.25;4994439;28;20262;-67
2022/12/05 04:33:18;;;;;;;;;;;;;;;-2.79;70.97;102657.06;4994591;28;19961;-67
2022/12/05 04:35:51;;;;;;;;;;;;;;;-2.78;73.62;102648.28;4994036;28;20043;-66
2022/12/05 04:38:23;;;;;;;;;;;;;;;-2.79;72.04;102649.19;4993932;28;19922;-66
2022/12/05 04:41:00;;;;;;;;;;;;;;;-2.76;74.84;102644.69;4994239;28;20424;-66
2022/12/05 04:43:27;;;;;;;;;;;;;;;-2.70;76.90;102642.75;4994164;28;20003;-66
2022/12/05 04:45:54;;;;;;;;;;;;;;;-2.68;77.37;102641.78;4994210;28;19917;-66
2022/12/05 04:48:20;;;;;;;;;;;;;;;-2.69;76.52;102645.34;4994131;28;19921;-66
2022/12/05 04:50:47;;;;;;;;;;;;;;;-2.71;76.03;102649.78;4994202;28;19917;-66
2022/12/05 04:53:13;;;;;;;;;;;;;;;-2.75;74.37;102646.41;4994412;28;20120;-66
2022/12/05 04:55:41;;;;;;;;;;;;;;;-2.74;76.20;102644.63;4993361;28;19968;-67
2022/12/05 04:58:08;;;;;;;;;;;;;;;-2.73;77.62;102644.59;4994419;28;20005;-67
2022/12/05 05:00:37;;;;;;;;;;;;;;;-2.67;78.72;102645.28;4994506;28;20339;-67
2022/12/05 05:03:22;;;;;;;;;;;;;;;-2.70;77.51;102640.97;4994405;28;19914;-67
2022/12/05 05:05:50;;;;;;;;;;;;;;;-2.66;78.76;102639.09;4993240;28;20329;-67
2022/12/05 05:08:17;;;;;;;;;;;;;;;-2.63;79.26;102642.47;4996700;28;19941;-67
2022/12/05 05:10:48;;;;;;;;;;;;;;;-2.63;78.68;102629.31;4997626;28;19968;-67
2022/12/05 05:13:13;;;;;;;;;;;;;;;-2.69;75.99;102645.34;4996723;28;19914;-66
2022/12/05 05:15:38;;;;;;;;;;;;;;;-2.69;76.10;102639.19;4996317;28;19920;-66
2022/12/05 05:18:03;;;;;;;;;;;;;;;-2.73;74.49;102639.31;4994712;28;19921;-66
2022/12/05 05:20:29;;;;;;;;;;;;;;;-2.76;73.72;102636.78;4994651;28;20036;-66
2022/12/05 05:22:55;;;;;;;;;;;;;;;-2.72;75.96;102633.13;4994211;28;19924;-66
2022/12/05 05:25:20;;;;;;;;;;;;;;;-2.75;74.05;102633.25;4994826;28;19917;-66
2022/12/05 05:27:50;;;;;;;;;;;;;;;-2.71;76.19;102641.91;4994276;28;19925;-66
2022/12/05 05:30:15;;;;;;;;;;;;;;;-2.74;75.19;102649.88;4994157;28;19918;-66
2022/12/05 05:32:40;;;;;;;;;;;;;;;-2.71;76.46;102641.91;4994265;28;20322;-66
2022/12/05 05:35:06;;;;;;;;;;;;;;;-2.72;77.15;102638.38;4992616;28;19984;-68
2022/12/05 05:37:31;;;;;;;;;;;;;;;-2.72;76.37;102637.53;4996410;28;19921;-67
2022/12/05 05:39:56;;;;;;;;;;;;;;;-2.70;77.32;102627.81;4997149;28;20314;-67
2022/12/05 05:42:21;;;;;;;;;;;;;;;-2.80;74.45;102626.44;4996025;28;20125;-67
2022/12/05 05:44:47;;;;;;;;;;;;;;;-2.89;72.22;102627.63;4998024;28;19960;-67
2022/12/05 05:47:12;;;;;;;;;;;;;;;-2.82;77.29;102631.75;4997597;28;20378;-67
2022/12/05 05:49:37;;;;;;;;;;;;;;;-2.82;74.48;102636.13;4996316;28;19921;-67
2022/12/05 05:52:02;;;;;;;;;;;;;;;-2.88;74.58;102634.56;4997360;28;19949;-67
2022/12/05 05:54:28;;;;;;;;;;;;;;;-2.96;72.06;102634.84;4997539;28;19921;-67
2022/12/05 05:56:53;;;;;;;;;;;;;;;-3.03;70.56;102635.94;4997387;28;19925;-67
2022/12/05 05:59:18;;;;;;;;;;;;;;;-3.06;72.11;102633.44;4997112;28;19914;-67
2022/12/05 06:01:43;;;;;;;;;;;;;;;-3.11;70.57;102636.22;4997193;28;19914;-67
2022/12/05 06:04:09;;;;;;;;;;;;;;;-3.14;71.50;102635.47;4997048;28;19972;-67
2022/12/05 06:06:34;;;;;;;;;;;;;;;-3.19;69.35;102637.41;4997163;28;19922;-67
2022/12/05 06:08:59;;;;;;;;;;;;;;;-3.24;68.82;102636.69;4996757;28;19914;-67
2022/12/05 06:11:25;;;;;;;;;;;;;;;-3.24;72.09;102632.28;4996838;28;19933;-67
2022/12/05 06:13:51;;;;;;;;;;;;;;;-3.31;68.21;102630.75;4997155;28;20001;-66
2022/12/05 06:16:17;;;;;;;;;;;;;;;-3.39;70.15;102619.66;4997001;28;20024;-67
2022/12/05 06:18:43;;;;;;;;;;;;;;;-3.38;70.34;102613.47;4997036;28;19918;-67
2022/12/05 06:21:09;;;;;;;;;;;;;;;-3.36;69.95;102614.28;4996526;28;19921;-67
2022/12/05 06:23:35;;;;;;;;;;;;;;;-3.40;71.10;102610.94;4997382;28;19957;-67
2022/12/05 06:26:00;;;;;;;;;;;;;;;-3.38;70.59;102610.84;4996408;28;19961;-67
2022/12/05 06:28:25;;;;;;;;;;;;;;;-3.39;69.59;102610.00;4996967;28;19915;-67
2022/12/05 06:30:51;;;;;;;;;;;;;;;-3.39;70.73;102610.00;4996508;28;20262;-66
2022/12/05 06:33:19;;;;;;;;;;;;;;;-3.42;69.36;102617.97;4997301;28;19925;-66
2022/12/05 06:35:45;;;;;;;;;;;;;;;-3.49;68.60;102611.22;4996450;28;20013;-66
2022/12/05 06:38:10;;;;;;;;;;;;;;;-3.51;69.50;102613.91;4995741;28;19976;-66
2022/12/05 06:40:39;;;;;;;;;;;;;;;-3.55;69.80;102607.03;4996119;28;19976;-67
2022/12/05 06:43:05;;;;;;;;;;;;;;;-3.62;69.24;102604.63;4995198;28;19942;-67
2022/12/05 06:45:30;;;;;;;;;;;;;;;-3.59;71.24;102604.53;4996315;28;19918;-67
2022/12/05 06:47:55;;;;;;;;;;;;;;;-3.54;73.27;102606.09;4994073;28;19972;-67
2022/12/05 06:50:20;;;;;;;;;;;;;;;-3.54;70.92;102616.63;4996303;28;19913;-67
2022/12/05 06:52:46;;;;;;;;;;;;;;;-3.56;69.78;102604.44;4996053;28;19917;-66
2022/12/05 06:55:11;;;;;;;;;;;;;;;-3.58;70.13;102604.50;4996334;28;19995;-67
2022/12/05 06:57:36;;;;;;;;;;;;;;;-3.56;70.60;102605.31;4996087;28;19964;-67
2022/12/05 07:02:49;;;;;;;;;;;;;;;-3.62;69.62;102623.00;4996065;28;19925;-66
2022/12/05 07:05:14;;;;;;;;;;;;;;;-3.61;71.82;102616.84;4995730;28;19963;-66
2022/12/05 07:07:39;;;;;;;;;;;;;;;-3.62;70.26;102607.25;4995375;28;19969;-66
2022/12/05 07:10:05;;;;;;;;;;;;;;;-3.64;69.03;102612.56;4995594;28;19972;-66
2022/12/05 07:12:31;;;;;;;;;;;;;;;-3.65;71.48;102617.88;4995725;28;20195;-66
2022/12/05 07:14:56;;;;;;;;;;;;;;;-3.65;70.50;102602.13;4995731;28;20370;-66
2022/12/05 07:17:22;;;;;;;;;;;;;;;-3.62;72.80;102595.00;4996123;28;19921;-67
2022/12/05 07:19:48;;;;;;;;;;;;;;;-3.66;69.42;102588.09;4995452;28;20357;-66
2022/12/05 07:22:13;;;;;;;;;;;;;;;-3.65;71.46;102595.09;4995655;28;20378;-65
2022/12/05 07:24:38;;;;;;;;;;;;;;;-3.62;70.53;102596.75;4995453;28;19956;-66
2022/12/05 07:27:04;;;;;;;;;;;;;;;-3.62;71.87;102596.75;4995939;28;20023;-66
2022/12/05 07:29:30;;;;;;;;;;;;;;;-3.61;72.15;102599.31;4995591;28;19920;-66
2022/12/05 07:31:55;;;;;;;;;;;;;;;-3.65;71.44;102584.59;4995629;28;19914;-67
2022/12/05 07:34:20;;;;;;;;;;;;;;;-3.70;70.25;102579.50;4995502;28;19922;-67
2022/12/05 07:36:46;;;;;;;;;;;;;;;-3.69;70.22;102577.72;4994905;28;20378;-66
2022/12/05 07:39:11;;;;;;;;;;;;;;;-3.63;73.07;102585.38;4995367;28;19920;-66
2022/12/05 07:41:36;;;;;;;;;;;;;;;-3.58;73.61;102583.47;4994860;28;19940;-66
2022/12/05 07:44:01;;;;;;;;;;;;;;;-3.60;70.37;102581.78;4995122;28;19917;-66
2022/12/05 07:46:27;;;;;;;;;;;;;;;-3.59;71.47;102583.53;4994257;28;20215;-66
2022/12/05 07:48:53;;;;;;;;;;;;;;;-3.66;70.25;102582.00;4995063;28;19913;-69
2022/12/05 07:51:19;;;;;;;;;;;;;;;-3.71;69.82;102572.50;4995231;28;19914;-66
2022/12/05 07:53:44;;;;;;;;;;;;;;;-3.68;71.13;102573.31;4995110;28;19921;-67
2022/12/05 07:56:13;;;;;;;;;;;;;;;-3.79;69.93;102569.28;4994737;28;19979;-67
2022/12/05 07:58:38;;;;;;;;;;;;;;;-3.80;72.56;102571.97;4994802;28;20037;-65
2022/12/05 08:01:11;;;;;;;;;;;;;;;-3.89;70.89;102575.72;4994216;28;19961;-66
2022/12/05 08:03:37;;;;;;;;;;;;;;;-3.89;70.20;102573.94;4994606;28;19959;-66
2022/12/05 08:06:07;;;;;;;;;;;;;;;-3.91;70.28;102573.13;4994292;28;19920;-66
2022/12/05 08:08:32;;;;;;;;;;;;;;;-3.92;70.49;102565.31;4994306;28;20389;-66
2022/12/05 08:11:02;;;;;;;;;;;;;;;-3.94;71.40;102556.63;4994245;28;19913;-66
2022/12/05 08:13:28;;;;;;;;;;;;;;;-3.96;71.15;102548.78;4994122;28;19980;-66
2022/12/05 08:15:53;;;;;;;;;;;;;;;-3.92;72.28;102552.19;4994595;28;19913;-66
2022/12/05 08:18:18;;;;;;;;;;;;;;;-3.86;73.27;102545.88;4994631;28;20028;-66
2022/12/05 08:20:43;;;;;;;;;;;;;;;-3.82;73.09;102548.38;4994670;28;19914;-66
2022/12/05 08:23:09;;;;;;;;;;;;;;;-3.76;73.47;102542.06;4995007;28;19914;-66
2022/12/05 08:25:34;;;;;;;;;;;;;;;-3.75;72.45;102544.66;4995350;28;19918;-66
2022/12/05 08:27:59;;;;;;;;;;;;;;;-3.67;73.24;102540.91;4994941;28;20282;-66
2022/12/05 08:30:25;;;;;;;;;;;;;;;-3.75;69.67;102541.13;4995224;28;19990;-66
2022/12/05 08:32:50;;;;;;;;;;;;;;;-3.72;71.26;102539.28;4994390;28;20308;-66
2022/12/05 08:35:16;;;;;;;;;;;;;;;-3.72;69.83;102541.06;4993999;28;19937;-66
2022/12/05 08:37:41;;;;;;;;;;;;;;;-3.73;69.25;102534.09;4993870;28;19921;-66
2022/12/05 08:40:07;;;;;;;;;;;;;;;-3.80;69.60;102535.22;4994355;28;20345;-66
2022/12/05 08:42:32;;;;;;;;;;;;;;;-3.82;69.92;102540.50;4994558;28;20021;-66
2022/12/05 08:44:57;;;;;;;;;;;;;;;-3.75;71.75;102528.91;4994273;28;19996;-66
2022/12/05 08:47:22;;;;;;;;;;;;;;;-3.68;71.23;102539.19;4994208;28;19918;-67
2022/12/05 08:49:48;;;;;;;;;;;;;;;-3.72;70.33;102541.91;4994342;28;19914;-66
2022/12/05 08:52:13;;;;;;;;;;;;;;;-3.74;69.73;102529.75;4994572;28;19914;-66
2022/12/05 08:54:38;;;;;;;;;;;;;;;-3.68;71.48;102536.56;4994176;28;19918;-66
2022/12/05 08:57:04;;;;;;;;;;;;;;;-3.63;72.78;102537.28;4994781;28;20008;-66
2022/12/05 08:59:30;;;;;;;;;;;;;;;-3.70;70.94;102542.75;4994379;28;19913;-66
2022/12/05 09:01:55;;;;;;;;;;;;;;;-3.67;71.31;102543.53;4994367;28;19918;-66
2022/12/05 09:04:20;;;;;;;;;;;;;;;-3.85;70.37;102552.88;4992930;28;19913;-66
2022/12/05 09:06:46;;;;;;;;;;;;;;;-3.94;71.54;102547.00;4993510;28;19917;-66
2022/12/05 09:09:11;;;;;;;;;;;;;;;-3.93;71.67;102548.72;4994238;28;19921;-66
2022/12/05 09:11:39;;;;;;;;;;;;;;;-3.94;70.74;102549.63;4996092;28;20354;-66
2022/12/05 09:14:05;;;;;;;;;;;;;;;-3.94;71.65;102554.00;4997946;28;20374;-66
2022/12/05 09:16:32;;;;;;;;;;;;;;;-3.95;71.50;102561.03;4996891;28;19952;-66
2022/12/05 09:18:57;;;;;;;;;;;;;;;-3.95;70.45;102547.06;4996865;28;20303;-66
2022/12/05 09:21:28;;;;;;;;;;;;;;;-3.95;72.07;102549.69;4998419;28;19921;-66
2022/12/05 09:23:54;;;;;;;;;;;;;;;-3.95;71.40;102539.19;4997963;28;19914;-66
2022/12/05 09:26:21;;;;;;;;;;;;;;;-3.97;71.28;102525.25;4997440;28;19918;-66
2022/12/05 09:28:47;;;;;;;;;;;;;;;-3.90;71.74;102524.13;4997924;28;20436;-67
2022/12/05 09:31:14;;;;;;;;;;;;;;;-3.83;73.54;102528.28;4996580;28;19917;-66
2022/12/05 09:33:39;;;;;;;;;;;;;;;-3.83;72.52;102519.53;4997622;28;19917;-66
2022/12/05 09:36:05;;;;;;;;;;;;;;;-3.90;73.33;102522.38;4997372;28;19918;-66
2022/12/05 09:38:30;;;;;;;;;;;;;;;-3.90;73.02;102526.75;4997604;28;20381;-66
2022/12/05 09:41:20;;;;;;;;;;;;;;;-3.96;70.97;102519.06;4997318;28;19913;-66
2022/12/05 09:44:02;;;;;;;;;;;;;;;-3.91;71.90;102525.03;4996884;28;20359;-66
2022/12/05 09:46:42;;;;;;;;;;;;;;;-3.83;73.70;102517.78;4997464;28;19964;-66
2022/12/05 09:49:10;;;;;;;;;;;;;;;-3.90;71.82;102517.13;4998479;28;19917;-66
2022/12/05 09:51:39;;;;;;;;;;;;;;;-3.94;72.98;102514.63;4997496;28;20004;-66
2022/12/05 09:54:04;;;;;;;;;;;;;;;-3.93;74.23;102519.00;4997709;28;19917;-67
2022/12/05 09:56:30;;;;;;;;;;;;;;;-3.89;71.53;102512.72;4999551;28;19920;-69
2022/12/05 09:59:01;;;;;;;;;;;;;;;-3.88;71.58;102501.34;4999441;28;19957;-67
2022/12/05 10:01:27;;;;;;;;;;;;;;;-3.87;74.09;102496.94;5001159;28;20008;-66
2022/12/05 10:03:57;;;;;;;;;;;;;;;-3.86;72.74;102490.75;5000459;28;20019;-66
2022/12/05 10:06:39;;;;;;;;;;;;;;;-3.86;72.74;102480.25;4998025;28;19917;-67
2022/12/05 10:09:13;;;;;;;;;;;;;;;-3.74;74.26;102472.84;4999656;28;20426;-66
2022/12/05 10:11:57;;;;;;;;;;;;;;;-3.70;72.90;102471.84;4996898;28;19914;-66
2022/12/05 10:14:34;;;;;;;;;;;;;;;-3.66;71.30;102463.84;4996790;28;19914;-66
2022/12/05 10:17:22;;;;;;;;;;;;;;;-3.60;71.88;102463.63;4979264;28;19914;-66
2022/12/05 10:19:49;;;;;;;;;;;;;;;-3.53;71.93;102465.16;4996251;28;19921;-66
2022/12/05 10:22:36;;;;;;;;;;;;;;;-3.59;72.71;102454.84;4994762;28;19920;-66
2022/12/05 10:25:03;;;;;;;;;;;;;;;-3.77;70.76;102465.09;4996871;28;19975;-66
2022/12/05 10:27:34;;;;;;;;;;;;;;;-3.80;72.18;102449.44;4996689;28;19962;-66
2022/12/05 10:30:17;;;;;;;;;;;;;;;-3.80;72.13;102453.84;4996550;28;19914;-66
2022/12/05 10:32:52;;;;;;;;;;;;;;;-3.76;73.63;102456.28;4996571;28;20281;-66
2022/12/05 10:35:22;;;;;;;;;;;;;;;-3.73;72.86;102452.72;4995032;28;20354;-66
2022/12/05 10:37:55;;;;;;;;;;;;;;;-3.73;74.26;102450.94;4995967;28;20381;-65
2022/12/05 10:40:21;;;;;;;;;;;;;;;-3.83;71.76;102452.16;4995968;28;19921;-65
2022/12/05 10:42:47;;;;;;;;;;;;;;;-3.94;72.82;102443.78;4978610;28;19918;-65
2022/12/05 10:45:21;;;;;;;;;;;;;;;-4.07;73.17;102443.31;4996203;28;20021;-66
2022/12/05 10:47:46;;;;;;;;;;;;;;;-4.09;73.93;102442.50;4995014;28;19948;-66
2022/12/05 10:50:20;;;;;;;;;;;;;;;-4.11;72.93;102437.31;4996248;28;19968;-65
2022/12/05 10:52:46;;;;;;;;;;;;;;;-4.20;74.01;102429.75;4996271;28;20056;-65
2022/12/05 10:55:12;;;;;;;;;;;;;;;-4.23;72.54;102428.97;4996141;28;20418;-65
2022/12/05 10:57:37;;;;;;;;;;;;;;;-4.21;74.05;102425.41;4996428;28;19913;-65
2022/12/05 11:00:14;;;;;;;;;;;;;;;-4.36;72.20;102425.91;4996052;28;20012;-65
2022/12/05 11:02:40;;;;;;;;;;;;;;;-4.32;74.93;102422.28;4996082;28;20016;-65
2022/12/05 11:05:05;;;;;;;;;;;;;;;-4.26;74.74;102410.75;4994161;28;20243;-65
2022/12/05 11:07:47;;;;;;;;;;;;;;;-4.20;74.97;102410.53;4995726;28;19946;-66
2022/12/05 11:10:26;;;;;;;;;;;;;;;-4.26;72.88;102401.09;4995724;28;19956;-65
2022/12/05 11:12:51;;;;;;;;;;;;;;;-4.21;72.78;102399.19;4995730;28;19921;-65
2022/12/05 11:15:18;;;;;;;;;;;;;;;-4.16;73.48;102389.41;4995542;28;19918;-65
2022/12/05 11:17:44;;;;;;;;;;;;;;;-4.04;74.19;102393.38;4996244;28;19918;-65
2022/12/05 11:20:30;;;;;;;;;;;;;;;-3.99;73.52;102380.09;4995787;28;19914;-65
2022/12/05 11:22:55;;;;;;;;;;;;;;;-3.97;74.50;102370.41;4995415;28;19921;-65
2022/12/05 11:25:24;;;;;;;;;;;;;;;-3.91;73.53;102370.19;4994521;28;20008;-66
2022/12/05 11:27:49;;;;;;;;;;;;;;;-3.74;72.68;102367.84;4995563;28;20282;-66
2022/12/05 11:30:18;;;;;;;;;;;;;;;-3.48;70.86;102365.19;4995727;28;19968;-66
2022/12/05 11:32:43;;;;;;;;;;;;;;;-2.83;68.93;102353.97;4995106;28;19913;-65
2022/12/05 11:35:11;;;;;;;;;;;;;;;-3.28;69.64;102343.47;4994758;28;19921;-66
2022/12/05 11:37:42;;;;;;;;;;;;;;;-3.77;71.68;102349.59;4994676;28;19995;-66
2022/12/05 11:40:15;;;;;;;;;;;;;;;-3.85;71.10;102345.50;4994473;28;19914;-66
2022/12/05 11:42:40;;;;;;;;;;;;;;;-3.85;72.38;102345.50;4995251;28;19914;-66
2022/12/05 11:45:15;;;;;;;;;;;;;;;-3.82;72.22;102338.38;4994961;28;19937;-66
2022/12/05 11:47:59;;;;;;;;;;;;;;;-3.78;71.96;102331.25;4993945;28;19918;-66
2022/12/05 11:50:34;;;;;;;;;;;;;;;-3.74;72.53;102327.59;4993547;28;19955;-66
2022/12/05 11:53:06;;;;;;;;;;;;;;;-3.68;72.10;102327.38;4995316;28;19936;-66
2022/12/05 11:55:37;;;;;;;;;;;;;;;-3.67;71.96;102318.59;4995467;28;19921;-66
2022/12/05 11:58:06;;;;;;;;;;;;;;;-3.74;71.72;102310.06;4995238;28;19938;-66
2022/12/05 12:00:31;;;;;;;;;;;;;;;-3.79;72.34;102309.41;4995101;28;19914;-66
2022/12/05 12:03:15;;;;;;;;;;;;;;;-3.77;72.23;102301.47;4993846;28;19914;-66
2022/12/05 12:05:54;;;;;;;;;;;;;;;-3.67;72.83;102287.09;4994959;28;20274;-66
2022/12/05 12:08:27;;;;;;;;;;;;;;;-3.65;72.47;102276.53;4994702;28;19965;-66
2022/12/05 12:11:02;;;;;;;;;;;;;;;-3.58;70.98;102270.16;4994533;28;19921;-66
2022/12/05 12:13:30;;;;;;;;;;;;;;;-3.50;69.77;102262.84;4994799;28;20380;-66
2022/12/05 12:16:05;;;;;;;;;;;;;;;-3.54;69.69;102262.09;4994966;28;19925;-66
2022/12/05 12:18:43;;;;;;;;;;;;;;;-3.58;71.55;102255.25;4994718;28;19945;-66
2022/12/05 12:21:14;;;;;;;;;;;;;;;-3.35;71.56;102256.97;4994956;28;19925;-65
2022/12/05 12:23:59;;;;;;;;;;;;;;;-3.46;69.50;102263.56;4993455;28;19914;-65
2022/12/05 12:26:35;;;;;;;;;;;;;;;-3.52;71.63;102265.50;4994487;28;19918;-66
2022/12/05 12:29:16;;;;;;;;;;;;;;;-3.51;71.08;102269.88;4994500;28;19921;-66
2022/12/05 12:31:52;;;;;;;;;;;;;;;-3.48;72.20;102265.41;4994381;28;19914;-66
2022/12/05 12:34:36;;;;;;;;;;;;;;;-3.53;70.63;102263.81;4994406;28;19960;-66
2022/12/05 12:37:08;;;;;;;;;;;;;;;-3.59;71.96;102268.44;4993540;28;20025;-66
2022/12/05 12:39:50;;;;;;;;;;;;;;;-3.78;70.72;102266.47;4994153;28;20012;-66
2022/12/05 12:42:18;;;;;;;;;;;;;;;-3.96;71.76;102264.53;4994103;28;19914;-66
2022/12/05 12:44:44;;;;;;;;;;;;;;;-4.12;71.35;102256.38;4994013;28;19968;-66
2022/12/05 12:47:25;;;;;;;;;;;;;;;-4.14;73.82;102245.91;4996857;28;19918;-65
2022/12/05 12:50:06;;;;;;;;;;;;;;;-4.16;70.57;102236.38;4998452;28;19913;-65
2022/12/05 12:52:58;;;;;;;;;;;;;;;-4.10;72.32;102237.03;4998394;28;19914;-66